createdAt,value
2023-02-24T00:00:53.887Z,21.50
2023-02-24T00:03:24.199Z,21.70
2023-02-24T00:05:54.877Z,21.70
2023-02-24T00:08:32.526Z,21.60
2023-02-24T00:11:03.308Z,21.60
2023-02-24T00:13:34.199Z,21.60
2023-02-24T00:16:08.666Z,21.40
2023-02-24T00:18:39.410Z,21.20
2023-02-24T00:21:14.354Z,21.20
2023-02-24T00:23:49.861Z,21.20
2023-02-24T00:26:22.347Z,21.20
2023-02-24T00:28:54.289Z,21.30
2023-02-24T00:31:26.337Z,21.40
2023-02-24T00:33:59.955Z,21.40
2023-02-24T00:36:33.882Z,21.40
2023-02-24T00:39:14.170Z,21.30
2023-02-24T00:41:46.583Z,21.10
2023-02-24T00:44:17.936Z,21.00
2023-02-24T00:46:49.385Z,21.10
2023-02-24T00:49:23.124Z,21.20
2023-02-24T00:51:55.996Z,21.60
2023-02-24T00:54:30.700Z,22.00
2023-02-24T00:57:02.563Z,22.30
2023-02-24T00:59:33.395Z,22.70
2023-02-24T01:02:05.903Z,23.10
2023-02-24T01:04:37.092Z,23.40
2023-02-24T01:07:13.807Z,23.40
2023-02-24T01:09:45.385Z,23.50
2023-02-24T01:12:35.058Z,23.70
2023-02-24T01:15:06.913Z,24.00
2023-02-24T01:17:39.877Z,24.30
2023-02-24T01:20:19.173Z,24.40
2023-02-24T01:22:55.484Z,24.40
2023-02-24T01:25:27.179Z,24.30
2023-02-24T01:27:59.405Z,24.40
2023-02-24T01:30:29.995Z,24.40
2023-02-24T01:33:01.141Z,24.30
2023-02-24T01:35:35.254Z,24.50
2023-02-24T01:38:07.227Z,24.50
2023-02-24T01:40:38.796Z,24.70
2023-02-24T01:43:10.924Z,24.70
2023-02-24T01:45:41.955Z,24.80
2023-02-24T01:48:14.704Z,24.90
2023-02-24T01:50:44.992Z,25.00
2023-02-24T01:53:16.175Z,25.00
2023-02-24T01:55:53.699Z,25.10
2023-02-24T01:58:31.046Z,25.20
2023-02-24T02:01:03.172Z,25.30
2023-02-24T02:03:37.154Z,25.20
2023-02-24T02:06:13.743Z,25.00
2023-02-24T02:08:45.896Z,25.10
2023-02-24T02:11:23.207Z,25.20
2023-02-24T02:13:56.129Z,25.20
2023-02-24T02:16:49.771Z,25.00
2023-02-24T02:19:53.760Z,25.00
2023-02-24T02:22:43.524Z,25.20
2023-02-24T02:25:35.270Z,25.40
2023-02-24T02:28:10.228Z,25.60
2023-02-24T02:31:23.180Z,25.40
2023-02-24T02:33:57.800Z,25.20
2023-02-24T02:36:49.418Z,24.90
2023-02-24T02:39:39.026Z,24.80
2023-02-24T02:42:27.860Z,25.00
2023-02-24T02:45:13.624Z,25.30
2023-02-24T02:48:09.391Z,25.60
2023-02-24T02:50:58.447Z,26.00
2023-02-24T02:53:42.976Z,26.20
2023-02-24T02:56:28.691Z,26.40
2023-02-24T02:59:02.996Z,26.50
2023-02-24T03:01:41.075Z,26.50
2023-02-24T03:04:17.636Z,26.40
2023-02-24T03:06:56.148Z,26.30
2023-02-24T03:09:45.385Z,25.80
2023-02-24T03:12:28.391Z,25.40
2023-02-24T03:15:10.636Z,25.30
2023-02-24T03:17:45.222Z,25.40
2023-02-24T03:20:38.125Z,25.50
2023-02-24T03:23:29.553Z,25.70
2023-02-24T03:26:23.360Z,25.80
2023-02-24T03:29:05.612Z,26.00
2023-02-24T03:31:53.185Z,26.10
2023-02-24T03:34:51.811Z,26.20
2023-02-24T03:37:28.469Z,26.30
2023-02-24T03:40:01.687Z,26.40
2023-02-24T03:42:35.499Z,26.50
2023-02-24T03:45:08.046Z,26.50
2023-02-24T03:47:38.548Z,26.50
2023-02-24T03:50:20.537Z,26.40
2023-02-24T03:53:00.761Z,26.10
2023-02-24T03:56:13.015Z,26.00
2023-02-24T03:59:29.971Z,26.00
2023-02-24T04:02:17.335Z,25.80
2023-02-24T04:05:08.539Z,25.70
2023-02-24T04:08:07.309Z,25.50
2023-02-24T04:11:07.418Z,25.30
2023-02-24T04:14:11.679Z,25.20
2023-02-24T04:17:12.343Z,25.10
2023-02-24T04:19:45.170Z,25.20
2023-02-24T04:22:19.884Z,25.30
2023-02-24T04:24:54.482Z,25.30
2023-02-24T04:30:15.819Z,25.50
2023-02-24T04:32:46.432Z,25.60
2023-02-24T04:35:21.772Z,25.70
2023-02-24T04:37:54.768Z,25.70
2023-02-24T04:40:27.861Z,25.80
2023-02-24T04:42:59.762Z,25.80
2023-02-24T04:45:36.429Z,25.80
2023-02-24T04:48:16.579Z,25.70
2023-02-24T04:51:08.394Z,25.70
2023-02-24T04:53:47.461Z,25.70
2023-02-24T04:56:22.636Z,25.70
2023-02-24T04:58:54.504Z,25.70
2023-02-24T05:01:27.800Z,25.50
2023-02-24T05:04:18.512Z,25.50
2023-02-24T05:06:52.166Z,25.50
2023-02-24T05:09:25.021Z,25.50
2023-02-24T05:11:57.098Z,25.50
2023-02-24T05:14:30.173Z,25.50
2023-02-24T05:17:03.366Z,25.50
2023-02-24T05:19:52.989Z,25.50
2023-02-24T05:22:24.937Z,25.50
2023-02-24T05:24:57.513Z,25.30
2023-02-24T05:27:32.377Z,25.20
2023-02-24T05:30:04.645Z,25.00
2023-02-24T05:32:38.415Z,24.90
2023-02-24T05:35:11.595Z,24.90
2023-02-24T05:37:47.935Z,24.90
2023-02-24T05:40:21.558Z,24.90
2023-02-24T05:42:53.612Z,24.90
2023-02-24T05:45:24.469Z,24.90
2023-02-24T05:47:57.366Z,25.00
2023-02-24T05:50:29.575Z,25.00
2023-02-24T05:53:00.117Z,24.80
2023-02-24T05:55:31.172Z,24.70
2023-02-24T05:58:02.111Z,24.60
2023-02-24T06:00:33.005Z,24.60
2023-02-24T06:03:10.043Z,24.60
2023-02-24T06:05:41.550Z,24.60
2023-02-24T06:08:15.250Z,24.60
2023-02-24T06:10:48.859Z,24.60
2023-02-24T06:13:20.058Z,24.60
2023-02-24T06:15:52.275Z,24.60
2023-02-24T06:18:23.258Z,24.60
2023-02-24T06:20:53.665Z,24.60
2023-02-24T06:23:24.858Z,24.50
2023-02-24T06:26:00.457Z,24.50
2023-02-24T06:28:30.824Z,24.50
2023-02-24T06:31:05.378Z,24.40
2023-02-24T06:33:38.855Z,24.40
2023-02-24T06:36:13.687Z,24.40
2023-02-24T06:38:45.165Z,24.20
2023-02-24T06:41:16.148Z,24.10
2023-02-24T06:43:49.899Z,24.00
2023-02-24T06:46:20.319Z,24.00
2023-02-24T06:48:52.352Z,24.00
2023-02-24T06:51:24.729Z,23.90
2023-02-24T06:53:55.469Z,23.90
2023-02-24T06:56:26.326Z,23.90
2023-02-24T06:58:58.667Z,23.90
2023-02-24T07:01:31.224Z,23.90
2023-02-24T07:04:05.277Z,23.80
2023-02-24T07:06:41.086Z,23.80
2023-02-24T07:09:14.565Z,23.80
2023-02-24T07:12:06.311Z,23.70
2023-02-24T07:14:56.299Z,23.70
2023-02-24T07:17:30.670Z,23.60
2023-02-24T07:20:12.544Z,23.60
2023-02-24T07:22:43.969Z,23.60
2023-02-24T07:25:32.136Z,23.50
2023-02-24T07:28:06.973Z,23.50
2023-02-24T07:30:38.781Z,23.50
2023-02-24T07:33:11.578Z,23.50
2023-02-24T07:35:42.257Z,23.40
2023-02-24T07:38:12.912Z,23.40
2023-02-24T07:40:50.288Z,23.40
2023-02-24T07:43:20.904Z,23.30
2023-02-24T07:45:51.637Z,23.30
2023-02-24T07:48:23.039Z,23.30
2023-02-24T07:50:54.689Z,23.20
2023-02-24T07:53:25.311Z,23.20
2023-02-24T07:55:56.463Z,23.10
2023-02-24T07:58:27.300Z,23.10
2023-02-24T08:01:10.229Z,23.10
2023-02-24T08:03:43.357Z,23.10
2023-02-24T08:06:40.178Z,23.00
2023-02-24T08:09:18.572Z,23.00
2023-02-24T08:11:54.313Z,23.00
2023-02-24T08:14:35.251Z,22.90
2023-02-24T08:17:07.192Z,22.90
2023-02-24T08:19:43.932Z,22.90
2023-02-24T08:22:27.221Z,22.80
2023-02-24T08:25:02.401Z,22.70
2023-02-24T08:27:33.236Z,22.60
2023-02-24T08:30:04.865Z,22.50
2023-02-24T08:32:45.592Z,22.50
2023-02-24T08:35:18.918Z,22.30
2023-02-24T08:37:58.088Z,22.20
2023-02-24T08:40:34.290Z,22.20
2023-02-24T08:43:18.611Z,22.10
2023-02-24T08:46:15.766Z,22.00
2023-02-24T08:48:50.056Z,21.90
2023-02-24T08:51:36.971Z,21.80
2023-02-24T08:54:16.942Z,21.70
2023-02-24T08:56:57.508Z,21.70
2023-02-24T08:59:54.178Z,21.60
2023-02-24T09:02:29.874Z,21.50
2023-02-24T09:05:14.480Z,21.40
2023-02-24T09:07:45.395Z,21.40
2023-02-24T09:10:21.398Z,21.30
2023-02-24T09:12:55.606Z,21.30
2023-02-24T09:15:27.748Z,21.20
2023-02-24T09:18:08.924Z,21.10
2023-02-24T09:20:57.378Z,21.10
2023-02-24T09:23:47.600Z,21.00
2023-02-24T09:26:17.863Z,21.00
2023-02-24T09:28:50.898Z,20.90
2023-02-24T09:31:21.689Z,20.90
2023-02-24T09:33:53.482Z,20.90
2023-02-24T09:36:33.221Z,20.90
2023-02-24T09:39:05.376Z,20.90
2023-02-24T09:41:59.009Z,20.80
2023-02-24T09:44:35.087Z,20.80
2023-02-24T09:47:47.146Z,20.80
2023-02-24T09:51:01.025Z,20.80
2023-02-24T09:54:00.421Z,20.70
2023-02-24T09:56:40.971Z,20.70
2023-02-24T09:59:39.023Z,20.60
2023-02-24T10:02:57.773Z,20.60
2023-02-24T10:06:01.997Z,20.50
2023-02-24T10:08:56.570Z,20.40
2023-02-24T10:11:37.367Z,20.40
2023-02-24T10:14:29.414Z,20.30
2023-02-24T10:17:25.035Z,20.30
2023-02-24T10:20:18.771Z,20.30
2023-02-24T10:23:16.205Z,20.20
2023-02-24T10:26:08.540Z,20.20
2023-02-24T10:28:56.856Z,20.10
2023-02-24T10:32:02.934Z,20.00
2023-02-24T10:34:37.352Z,19.90
2023-02-24T10:37:28.939Z,19.80
2023-02-24T10:40:13.925Z,19.80
2023-02-24T10:42:47.428Z,19.80
2023-02-24T10:45:25.781Z,19.80
2023-02-24T10:48:01.488Z,19.70
2023-02-24T10:50:55.368Z,19.70
2023-02-24T10:53:36.633Z,19.60
2023-02-24T10:56:43.429Z,19.60
2023-02-24T10:59:27.472Z,19.60
2023-02-24T11:02:27.906Z,19.60
2023-02-24T11:05:02.842Z,19.50
2023-02-24T11:07:55.790Z,19.60
2023-02-24T11:10:28.137Z,19.60
2023-02-24T11:13:17.344Z,19.50
2023-02-24T11:16:11.238Z,19.50
2023-02-24T11:18:42.542Z,19.50
2023-02-24T11:21:16.054Z,19.40
2023-02-24T11:24:01.397Z,19.40
2023-02-24T11:26:40.797Z,19.40
2023-02-24T11:29:37.465Z,19.30
2023-02-24T11:32:23.796Z,19.30
2023-02-24T11:35:08.021Z,19.20
2023-02-24T11:37:46.894Z,19.20
2023-02-24T11:40:25.398Z,19.10
2023-02-24T11:43:05.983Z,19.10
2023-02-24T11:45:48.354Z,19.00
2023-02-24T11:48:50.662Z,18.90
2023-02-24T11:51:24.907Z,18.90
2023-02-24T11:53:57.630Z,18.90
2023-02-24T11:56:34.179Z,18.80
2023-02-24T11:59:08.729Z,18.70
2023-02-24T12:02:06.013Z,18.70
2023-02-24T12:05:19.137Z,18.60
2023-02-24T12:08:06.339Z,18.50
2023-02-24T12:10:49.056Z,18.40
2023-02-24T12:13:40.953Z,18.40
2023-02-24T12:16:20.012Z,18.30
2023-02-24T12:19:22.060Z,18.20
2023-02-24T12:22:04.726Z,18.20
2023-02-24T12:24:38.112Z,18.10
2023-02-24T12:27:25.674Z,18.10
2023-02-24T12:30:38.688Z,18.00
2023-02-24T12:33:41.526Z,18.00
2023-02-24T12:36:32.343Z,18.00
2023-02-24T12:39:18.250Z,17.90
2023-02-24T12:41:58.713Z,17.90
2023-02-24T12:45:00.435Z,17.90
2023-02-24T12:47:48.990Z,17.90
2023-02-24T12:50:41.366Z,17.90
2023-02-24T12:53:33.859Z,17.90
2023-02-24T12:56:18.188Z,17.90
2023-02-24T12:58:53.022Z,17.90
2023-02-24T13:01:34.049Z,18.00
2023-02-24T13:04:32.401Z,18.00
2023-02-24T13:07:05.460Z,18.10
2023-02-24T13:10:02.278Z,18.10
2023-02-24T13:13:07.366Z,18.00
2023-02-24T13:15:38.463Z,17.90
2023-02-24T13:18:08.837Z,17.90
2023-02-24T13:20:41.215Z,17.90
2023-02-24T13:23:24.374Z,17.90
2023-02-24T13:25:56.987Z,17.90
2023-02-24T13:28:34.992Z,17.90
2023-02-24T13:31:05.303Z,17.90
2023-02-24T13:33:40.929Z,17.90
2023-02-24T13:36:23.418Z,17.80
2023-02-24T13:39:06.154Z,17.70
2023-02-24T13:41:36.918Z,17.70
2023-02-24T13:44:27.355Z,17.60
2023-02-24T13:47:36.982Z,17.60
2023-02-24T13:50:26.790Z,17.60
2023-02-24T13:53:25.487Z,17.60
2023-02-24T13:56:47.677Z,17.60
2023-02-24T13:59:21.238Z,17.60
2023-02-24T14:02:00.338Z,17.60
2023-02-24T14:04:41.486Z,17.50
2023-02-24T14:07:21.575Z,17.40
2023-02-24T14:10:21.356Z,17.40
2023-02-24T14:12:54.189Z,17.40
2023-02-24T14:15:30.221Z,17.50
2023-02-24T14:18:07.879Z,17.50
2023-02-24T14:20:43.635Z,17.50
2023-02-24T14:23:33.347Z,17.60
2023-02-24T14:26:11.734Z,17.60
2023-02-24T14:28:51.710Z,17.60
2023-02-24T14:31:28.563Z,17.60
2023-02-24T14:34:05.471Z,17.60
2023-02-24T14:36:47.247Z,17.60
2023-02-24T14:39:29.665Z,17.50
2023-02-24T14:42:16.656Z,17.50
2023-02-24T14:44:54.306Z,17.50
2023-02-24T14:47:29.003Z,17.50
2023-02-24T14:50:03.907Z,17.50
2023-02-24T14:52:39.192Z,17.50
2023-02-24T14:55:33.358Z,17.50
2023-02-24T14:58:26.816Z,17.50
2023-02-24T15:01:05.616Z,17.50
2023-02-24T15:03:52.242Z,17.50
2023-02-24T15:06:30.997Z,17.50
2023-02-24T15:09:10.059Z,17.50
2023-02-24T15:11:41.601Z,17.40
2023-02-24T15:14:41.113Z,17.40
2023-02-24T15:17:22.618Z,17.30
2023-02-24T15:19:56.657Z,17.20
2023-02-24T15:22:37.611Z,17.10
2023-02-24T15:25:37.110Z,17.00
2023-02-24T15:28:29.434Z,17.00
2023-02-24T15:31:18.242Z,16.90
2023-02-24T15:34:02.044Z,16.80
2023-02-24T15:36:37.902Z,16.70
2023-02-24T15:39:19.343Z,16.70
2023-02-24T15:41:53.138Z,16.70
2023-02-24T15:44:35.348Z,16.70
2023-02-24T15:47:30.857Z,16.60
2023-02-24T15:50:01.725Z,16.50
2023-02-24T15:52:32.730Z,16.50
2023-02-24T15:55:04.670Z,16.50
2023-02-24T15:57:36.170Z,16.50
2023-02-24T16:00:16.564Z,16.50
2023-02-24T16:02:49.041Z,16.40
2023-02-24T16:05:23.066Z,16.40
2023-02-24T16:07:59.988Z,16.30
2023-02-24T16:10:32.032Z,16.30
2023-02-24T16:13:04.829Z,16.20
2023-02-24T16:15:41.014Z,16.20
2023-02-24T16:18:22.087Z,16.10
2023-02-24T16:20:58.635Z,16.10
2023-02-24T16:23:30.195Z,16.10
2023-02-24T16:26:06.090Z,16.00
2023-02-24T16:28:36.693Z,16.00
2023-02-24T16:31:09.379Z,16.00
2023-02-24T16:33:53.611Z,15.90
2023-02-24T16:36:27.707Z,15.90
2023-02-24T16:38:58.512Z,15.80
2023-02-24T16:41:30.136Z,15.70
2023-02-24T16:44:05.333Z,15.70
2023-02-24T16:46:41.684Z,15.70
2023-02-24T16:49:18.394Z,15.70
2023-02-24T16:51:48.866Z,15.70
2023-02-24T16:54:20.789Z,15.60
2023-02-24T16:56:52.354Z,15.60
2023-02-24T16:59:23.093Z,15.60
2023-02-24T17:01:53.833Z,15.60
2023-02-24T17:04:27.170Z,15.50
2023-02-24T17:07:00.482Z,15.50
2023-02-24T17:09:31.694Z,15.50
2023-02-24T17:12:02.975Z,15.40
2023-02-24T17:14:33.811Z,15.50
2023-02-24T17:17:04.121Z,15.40
2023-02-24T17:19:35.121Z,15.40
2023-02-24T17:22:06.872Z,15.40
2023-02-24T17:24:38.782Z,15.40
2023-02-24T17:27:09.541Z,15.40
2023-02-24T17:29:39.824Z,15.50
2023-02-24T17:32:10.662Z,15.50
2023-02-24T17:34:41.040Z,15.50
2023-02-24T17:37:11.356Z,15.50
2023-02-24T17:39:41.764Z,15.60
2023-02-24T17:42:12.086Z,15.60
2023-02-24T17:44:42.359Z,15.60
2023-02-24T17:47:14.369Z,15.60
2023-02-24T17:49:46.228Z,15.50
2023-02-24T17:52:17.031Z,15.50
2023-02-24T17:54:47.389Z,15.50
2023-02-24T17:57:17.712Z,15.50
2023-02-24T17:59:49.009Z,15.50
2023-02-24T18:02:20.397Z,15.40
2023-02-24T18:04:53.244Z,15.40
2023-02-24T18:07:25.112Z,15.30
2023-02-24T18:09:56.987Z,15.30
2023-02-24T18:12:28.448Z,15.20
2023-02-24T18:15:07.910Z,15.20
2023-02-24T18:17:40.870Z,15.20
2023-02-24T18:20:13.797Z,15.20
2023-02-24T18:22:44.090Z,15.10
2023-02-24T18:25:15.747Z,15.20
2023-02-24T18:27:46.065Z,15.10
2023-02-24T18:30:19.887Z,15.10
2023-02-24T18:32:51.961Z,15.10
2023-02-24T18:35:24.087Z,15.10
2023-02-24T18:38:00.786Z,15.10
2023-02-24T18:40:31.319Z,15.10
2023-02-24T18:43:01.783Z,15.00
2023-02-24T18:45:34.155Z,15.00
2023-02-24T18:48:07.056Z,15.00
2023-02-24T18:50:37.367Z,15.00
2023-02-24T18:53:07.721Z,15.00
2023-02-24T18:55:38.670Z,15.00
2023-02-24T18:58:08.957Z,15.00
2023-02-24T19:00:39.720Z,15.00
2023-02-24T19:03:10.810Z,15.00
2023-02-24T19:05:41.724Z,14.90
2023-02-24T19:08:12.470Z,14.90
2023-02-24T19:10:45.721Z,14.90
2023-02-24T19:13:16.543Z,14.90
2023-02-24T19:15:46.896Z,14.80
2023-02-24T19:18:18.652Z,14.80
2023-02-24T19:20:49.612Z,14.70
2023-02-24T19:23:20.248Z,14.70
2023-02-24T19:25:50.464Z,14.60
2023-02-24T19:28:21.003Z,14.60
2023-02-24T19:30:51.734Z,14.60
2023-02-24T19:33:22.911Z,14.60
2023-02-24T19:35:55.401Z,14.50
2023-02-24T19:38:28.736Z,14.50
2023-02-24T19:41:02.204Z,14.50
2023-02-24T19:43:32.500Z,14.50
2023-02-24T19:46:07.950Z,14.40
2023-02-24T19:48:39.882Z,14.40
2023-02-24T19:51:15.945Z,14.40
2023-02-24T19:53:46.681Z,14.40
2023-02-24T19:56:17.180Z,14.40
2023-02-24T19:58:48.919Z,14.40
2023-02-24T20:01:19.682Z,14.40
2023-02-24T20:03:50.444Z,14.40
2023-02-24T20:06:30.409Z,14.40
2023-02-24T20:09:03.067Z,14.40
2023-02-24T20:11:34.940Z,14.40
2023-02-24T20:14:06.083Z,14.40
2023-02-24T20:16:40.132Z,14.40
2023-02-24T20:19:20.614Z,14.40
2023-02-24T20:21:51.451Z,14.40
2023-02-24T20:24:22.118Z,14.50
2023-02-24T20:26:52.975Z,14.50
2023-02-24T20:29:24.424Z,14.50
2023-02-24T20:31:54.746Z,14.50
2023-02-24T20:34:25.667Z,14.50
2023-02-24T20:36:56.402Z,14.50
2023-02-24T20:39:27.147Z,14.60
2023-02-24T20:41:58.800Z,14.60
2023-02-24T20:44:30.814Z,14.60
2023-02-24T20:47:01.476Z,14.60
2023-02-24T20:49:33.535Z,14.70
2023-02-24T20:52:04.510Z,14.70
2023-02-24T20:54:35.287Z,14.70
2023-02-24T20:57:05.976Z,14.80
2023-02-24T20:59:36.235Z,14.80
2023-02-24T21:02:06.553Z,14.90
2023-02-24T21:04:36.985Z,14.90
2023-02-24T21:07:07.277Z,15.00
2023-02-24T21:09:38.797Z,15.00
2023-02-24T21:12:09.379Z,15.10
2023-02-24T21:14:40.134Z,15.20
2023-02-24T21:17:10.547Z,15.30
2023-02-24T21:19:41.465Z,15.40
2023-02-24T21:22:12.795Z,15.50
2023-02-24T21:24:43.530Z,15.60
2023-02-24T21:27:14.749Z,15.70
2023-02-24T21:29:45.022Z,15.80
2023-02-24T21:32:16.180Z,16.00
2023-02-24T21:34:46.744Z,16.10
2023-02-24T21:37:20.790Z,16.20
2023-02-24T21:39:51.802Z,16.40
2023-02-24T21:42:25.400Z,16.60
2023-02-24T21:45:05.366Z,16.70
2023-02-24T21:47:36.596Z,16.80
2023-02-24T21:50:13.597Z,17.00
2023-02-24T21:52:44.335Z,17.20
2023-02-24T21:55:15.767Z,17.40
2023-02-24T21:57:47.474Z,17.60
2023-02-24T22:00:21.647Z,17.80
2023-02-24T22:02:58.923Z,18.10
2023-02-24T22:05:29.722Z,18.30
2023-02-24T22:08:00.391Z,18.50
2023-02-24T22:10:30.965Z,18.70
2023-02-24T22:13:04.972Z,18.90
2023-02-24T22:15:36.126Z,19.00
2023-02-24T22:18:06.613Z,19.00
2023-02-24T22:20:36.883Z,19.20
2023-02-24T22:23:08.310Z,19.40
2023-02-24T22:25:39.277Z,19.50
2023-02-24T22:28:11.027Z,19.70
2023-02-24T22:30:41.734Z,19.90
2023-02-24T22:33:13.152Z,20.00
2023-02-24T22:35:43.926Z,20.30
2023-02-24T22:38:15.300Z,20.50
2023-02-24T22:40:46.745Z,20.60
2023-02-24T22:43:18.959Z,20.60
2023-02-24T22:45:59.792Z,20.80
2023-02-24T22:48:35.933Z,20.90
2023-02-24T22:51:07.255Z,21.10
2023-02-24T22:53:40.540Z,21.20
2023-02-24T22:56:13.395Z,21.40
2023-02-24T22:58:47.308Z,21.50
2023-02-24T23:01:31.488Z,21.70
2023-02-24T23:04:07.570Z,21.80
2023-02-24T23:06:39.483Z,21.90
2023-02-24T23:09:11.210Z,22.10
2023-02-24T23:11:45.029Z,22.20
2023-02-24T23:14:19.379Z,22.40
2023-02-24T23:16:59.154Z,22.50
2023-02-24T23:19:32.332Z,22.50
2023-02-24T23:22:03.390Z,22.50
2023-02-24T23:24:36.192Z,22.60
2023-02-24T23:27:08.154Z,22.70
2023-02-24T23:29:38.898Z,22.80
2023-02-24T23:32:09.716Z,23.00
2023-02-24T23:34:43.321Z,23.20
2023-02-24T23:37:15.711Z,23.30
2023-02-24T23:39:47.380Z,23.20
2023-02-24T23:42:20.194Z,23.30
2023-02-24T23:44:59.885Z,23.20
2023-02-24T23:47:31.187Z,23.20
2023-02-24T23:50:03.146Z,23.20
2023-02-24T23:52:33.806Z,23.20
2023-02-24T23:55:06.682Z,23.30
2023-02-24T23:57:37.777Z,23.60
